Phillipsport, New York
Current Conditions -  °F | °C
As of 5:54 PM on Thursday 20 Nov 2014 (Local Time) from KMGJ Reporting Station
Clear Clear  
Wind Chill: -3°   Ceiling: Unl
Heat Index:   Visibility: 10mi
Dew Point: -12°   Wind: 12mph
Humidity: 37%   Direction: 270°W
Pressure: 29.88"   Gusts: 21mph
Location:  41.65°N, 74.44°W
Report Text: KMGJ 202254Z AUTO 27010G18KT 10SM CLR 02/M12 A2988 RMK AO2 SLP122 T00171117 PWINO FZRANO TSNO
Loading
Personal Weather Stations






























Interactive Weather Map New forecast layout! Learn more

10-Day Weather Forecast

Advertisements
Track Severe Weather on mobile